Time;durP1;ratioP1;P1;durP2;ratioP2;P2;SDS_P1;SDS_P2;PMS_P1;PMS_P2;Temp;Humidity;BMP_temperature;BMP_pressure;BME280_temperature;BME280_humidity;BME280_pressure;Samples;Min_cycle;Max_cycle;Signal;HPM_P1;HPM_P2
2021/06/05 00:00:09;;;;;;;16.08;12.43;;;;;;;16.68;61.30;100283.34;5103122;28;20164;-69
2021/06/05 00:02:35;;;;;;;16.45;11.88;;;;;;;16.59;61.32;100276.19;5109989;28;20420;-69
2021/06/05 00:05:01;;;;;;;15.65;12.20;;;;;;;16.25;62.66;100280.03;5112871;28;20028;-74
2021/06/05 00:07:28;;;;;;;17.08;12.25;;;;;;;16.29;62.47;100280.13;5112611;28;20023;-69
2021/06/05 00:09:54;;;;;;;12.70;10.98;;;;;;;16.23;62.28;100279.56;5111226;28;20027;-73
2021/06/05 00:12:23;;;;;;;17.75;11.63;;;;;;;15.84;63.21;100285.50;5112853;28;20045;-69
2021/06/05 00:14:49;;;;;;;13.47;11.77;;;;;;;15.75;63.46;100283.94;5110541;28;20024;-73
2021/06/05 00:17:15;;;;;;;13.30;10.95;;;;;;;15.79;63.05;100282.09;5112927;28;20035;-68
2021/06/05 00:19:40;;;;;;;13.98;10.85;;;;;;;15.73;63.25;100273.84;5112394;28;20032;-69
2021/06/05 00:22:06;;;;;;;14.18;10.90;;;;;;;15.82;63.24;100270.94;5112774;28;20088;-73
2021/06/05 00:24:32;;;;;;;18.10;10.95;;;;;;;15.92;62.35;100266.00;5112395;28;20034;-70
2021/06/05 00:26:57;;;;;;;19.50;11.40;;;;;;;15.94;62.43;100272.97;5112162;28;20040;-72
2021/06/05 00:29:23;;;;;;;30.58;12.15;;;;;;;15.84;62.59;100264.94;5112709;28;20023;-73
2021/06/05 00:31:49;;;;;;;13.35;11.15;;;;;;;15.83;62.22;100266.94;5110714;28;20031;-73
2021/06/05 00:34:14;;;;;;;14.20;11.55;;;;;;;15.75;62.56;100262.22;5112248;28;20094;-69
2021/06/05 00:36:40;;;;;;;14.07;11.65;;;;;;;15.83;62.37;100272.59;5112259;28;20040;-74
2021/06/05 00:39:07;;;;;;;15.82;12.18;;;;;;;15.88;61.92;100273.50;5112149;28;20123;-68
2021/06/05 00:41:32;;;;;;;15.45;11.52;;;;;;;15.51;62.63;100269.47;5112136;28;20039;-73
2021/06/05 00:44:02;;;;;;;18.45;11.02;;;;;;;15.11;64.22;100273.69;5110593;28;20082;-73
2021/06/05 00:46:30;;;;;;;15.68;11.82;;;;;;;14.95;64.85;100269.88;5110817;28;20395;-73
2021/06/05 00:48:56;;;;;;;16.63;12.02;;;;;;;15.10;65.14;100274.88;5111902;28;20024;-68
2021/06/05 00:51:28;;;;;;;14.05;10.88;;;;;;;15.18;64.69;100275.16;5110649;28;20039;-73
2021/06/05 00:53:54;;;;;;;15.82;11.73;;;;;;;15.33;64.48;100276.50;5111754;28;20031;-68
2021/06/05 00:56:20;;;;;;;15.82;12.10;;;;;;;15.51;64.01;100280.75;5112100;28;20032;-69
2021/06/05 00:58:45;;;;;;;21.10;11.57;;;;;;;15.60;62.93;100266.53;5111514;27;20083;-69
2021/06/05 01:01:17;;;;;;;18.67;11.57;;;;;;;15.42;63.31;100268.75;5111703;28;20035;-69
2021/06/05 01:03:43;;;;;;;18.05;11.85;;;;;;;15.36;63.09;100268.13;5111670;28;20052;-68
2021/06/05 01:06:19;;;;;;;14.60;11.70;;;;;;;15.26;63.68;100265.75;5111688;28;20049;-68
2021/06/05 01:08:55;;;;;;;13.27;11.88;;;;;;;15.28;63.58;100264.25;5111741;28;20035;-73
2021/06/05 01:11:49;;;;;;;15.38;11.30;;;;;;;15.23;63.89;100266.47;5102483;28;20038;-73
2021/06/05 01:14:23;;;;;;;18.35;11.38;;;;;;;15.25;63.91;100264.94;5103197;28;20064;-68
2021/06/05 01:16:52;;;;;;;19.90;12.93;;;;;;;15.38;63.80;100257.34;5111506;28;20023;-68
2021/06/05 01:19:46;;;;;;;18.67;11.77;;;;;;;15.49;63.10;100257.72;5109963;28;20059;-73
2021/06/05 01:22:51;;;;;;;12.57;11.27;;;;;;;15.50;63.36;100248.09;5111714;28;20043;-68
2021/06/05 01:25:46;;;;;;;19.20;11.73;;;;;;;15.54;62.97;100248.22;5094342;28;20065;-68
2021/06/05 01:28:23;;;;;;;22.13;12.18;;;;;;;15.52;63.29;100245.75;5108544;28;20118;-69
2021/06/05 01:30:52;;;;;;;14.07;12.50;;;;;;;15.49;63.21;100245.63;5111310;28;20035;-73
2021/06/05 01:33:21;;;;;;;25.02;13.05;;;;;;;15.54;63.15;100251.03;5111014;28;20579;-73
2021/06/05 01:35:49;;;;;;;15.20;11.65;;;;;;;15.61;63.21;100254.09;5111043;28;20083;-73
2021/06/05 01:38:17;;;;;;;16.30;12.30;;;;;;;15.58;63.04;100247.19;5107713;28;20095;-69
2021/06/05 01:40:46;;;;;;;17.10;11.57;;;;;;;15.68;62.78;100247.88;5109519;28;20418;-73
2021/06/05 01:43:14;;;;;;;21.20;12.00;;;;;;;15.66;62.96;100244.59;5107670;28;20024;-74
2021/06/05 01:45:41;;;;;;;21.65;12.82;;;;;;;15.68;63.20;100245.88;5109301;28;20100;-74
2021/06/05 01:48:09;;;;;;;19.35;12.65;;;;;;;15.66;63.42;100241.75;5111082;28;20077;-69
2021/06/05 01:50:38;;;;;;;19.83;12.50;;;;;;;15.60;63.16;100238.34;5110795;28;20093;-73
2021/06/05 01:53:10;;;;;;;13.45;10.57;;;;;;;15.63;62.95;100239.66;5110873;28;20032;-74
2021/06/05 01:55:43;;;;;;;17.17;12.38;;;;;;;15.64;63.33;100241.28;5110838;28;20112;-69
2021/06/05 01:58:15;;;;;;;13.77;11.45;;;;;;;15.61;63.42;100242.81;5109655;28;20031;-74
2021/06/05 02:00:45;;;;;;;14.70;11.30;;;;;;;15.69;63.04;100241.09;5109159;28;20038;-73
2021/06/05 02:03:12;;;;;;;21.40;12.80;;;;;;;15.73;62.72;100233.56;5109623;28;20386;-69
2021/06/05 02:05:39;;;;;;;17.38;11.85;;;;;;;15.77;62.72;100228.84;5110451;28;20028;-74
2021/06/05 02:08:06;;;;;;;19.90;11.65;;;;;;;15.72;62.87;100237.56;5110784;28;20043;-68
2021/06/05 02:10:34;;;;;;;18.05;12.90;;;;;;;15.69;62.90;100239.06;5109124;28;20042;-74
2021/06/05 02:13:00;;;;;;;17.25;12.57;;;;;;;15.67;62.98;100238.59;5109467;28;20026;-74
2021/06/05 02:15:30;;;;;;;17.45;12.23;;;;;;;15.59;63.61;100231.06;5110714;28;20442;-69
2021/06/05 02:17:59;;;;;;;16.33;13.13;;;;;;;15.56;63.32;100235.41;5110828;28;20541;-74
2021/06/05 02:20:29;;;;;;;13.52;12.07;;;;;;;15.30;64.05;100228.09;5109075;28;20069;-69
2021/06/05 02:22:59;;;;;;;19.33;13.23;;;;;;;15.24;64.74;100240.75;5110582;28;20103;-69
2021/06/05 02:25:26;;;;;;;18.83;14.40;;;;;;;15.17;64.37;100240.50;5110567;28;20024;-73
2021/06/05 02:27:58;;;;;;;20.42;13.38;;;;;;;15.12;64.68;100235.09;5110435;28;20055;-74
2021/06/05 02:30:26;;;;;;;20.40;13.68;;;;;;;15.07;64.99;100232.47;5109211;28;20035;-73
2021/06/05 02:32:53;;;;;;;20.08;13.52;;;;;;;15.04;64.83;100233.19;5110363;28;20036;-69
2021/06/05 02:35:31;;;;;;;21.42;14.60;;;;;;;14.44;67.18;100234.97;5108824;28;20470;-69
2021/06/05 02:37:57;;;;;;;16.08;14.32;;;;;;;14.04;68.81;100241.06;5112371;28;20077;-74
2021/06/05 02:40:28;;;;;;;19.70;15.27;;;;;;;14.03;69.09;100240.22;5114241;28;20040;-73
2021/06/05 02:42:56;;;;;;;20.13;14.13;;;;;;;13.96;68.92;100245.56;5114946;28;20023;-73
2021/06/05 02:45:34;;;;;;;16.23;14.32;;;;;;;13.89;69.13;100251.72;5113064;28;20032;-74
2021/06/05 02:48:01;;;;;;;16.75;13.35;;;;;;;14.07;68.69;100245.19;5113139;28;20564;-68
2021/06/05 02:50:37;;;;;;;20.75;14.30;;;;;;;14.19;68.20;100242.47;5112675;28;20394;-68
2021/06/05 02:53:10;;;;;;;21.40;14.50;;;;;;;14.23;67.32;100248.22;5114187;28;20027;-73
2021/06/05 02:55:36;;;;;;;25.80;15.38;;;;;;;14.27;67.11;100241.56;5112700;28;20076;-73
2021/06/05 02:58:06;;;;;;;20.83;14.00;;;;;;;14.18;67.23;100238.81;5114238;28;20027;-68
2021/06/05 03:00:39;;;;;;;24.55;13.85;;;;;;;14.21;66.93;100236.47;5112600;28;20085;-73
2021/06/05 03:03:06;;;;;;;21.30;13.45;;;;;;;14.15;67.20;100236.69;5109092;28;20136;-69
2021/06/05 03:05:33;;;;;;;18.77;13.32;;;;;;;14.14;67.20;100231.38;5110382;28;20040;-74
2021/06/05 03:07:59;;;;;;;26.52;14.55;;;;;;;14.11;66.65;100235.69;5107816;28;20020;-73
2021/06/05 03:10:31;;;;;;;18.20;14.02;;;;;;;13.98;67.29;100246.06;5104271;28;20036;-68
2021/06/05 03:12:57;;;;;;;20.98;13.32;;;;;;;14.12;67.15;100242.16;5114009;28;20072;-74
2021/06/05 03:15:24;;;;;;;23.20;15.68;;;;;;;14.01;67.34;100248.16;5112356;28;20195;-68
2021/06/05 03:17:50;;;;;;;22.27;13.20;;;;;;;13.98;67.14;100246.06;5112456;28;20106;-74
2021/06/05 03:20:21;;;;;;;28.73;16.55;;;;;;;13.93;67.35;100246.22;5113389;28;20038;-68
2021/06/05 03:22:47;;;;;;;19.52;15.10;;;;;;;13.87;67.35;100245.59;5105788;28;20063;-68
2021/06/05 03:25:14;;;;;;;25.83;16.13;;;;;;;13.82;68.00;100239.38;5097562;28;20441;-74
2021/06/05 03:27:40;;;;;;;29.23;17.48;;;;;;;13.84;68.05;100242.66;5106333;28;20040;-69
2021/06/05 03:30:07;;;;;;;21.45;15.10;;;;;;;13.91;67.69;100237.31;5104773;28;20034;-68
2021/06/05 03:32:33;;;;;;;21.63;14.32;;;;;;;13.93;67.71;100240.59;5105179;28;20068;-74
2021/06/05 03:34:58;;;;;;;17.67;13.88;;;;;;;13.85;68.04;100239.47;5106463;28;20442;-70
2021/06/05 03:37:24;;;;;;;22.10;14.02;;;;;;;14.01;67.61;100253.00;5108495;28;20416;-68
2021/06/05 03:39:49;;;;;;;17.10;14.32;;;;;;;14.04;67.75;100244.69;5113296;28;20397;-73
2021/06/05 03:42:14;;;;;;;31.85;18.27;;;;;;;14.01;67.58;100250.19;5112187;28;20050;-70
2021/06/05 03:44:42;;;;;;;34.95;23.90;;;;;;;13.87;68.13;100253.22;5112932;28;20393;-67
2021/06/05 03:47:07;;;;;;;23.90;14.55;;;;;;;13.65;69.22;100246.69;5113228;28;20027;-67
2021/06/05 03:49:33;;;;;;;19.50;13.82;;;;;;;13.72;69.69;100241.38;5096234;28;20026;-73
2021/06/05 03:51:58;;;;;;;19.70;13.10;;;;;;;13.83;69.34;100247.44;5094111;28;20085;-67
2021/06/05 03:54:24;;;;;;;17.08;13.07;;;;;;;13.87;69.29;100247.59;5094780;28;20110;-73
2021/06/05 03:56:49;;;;;;;18.10;12.50;;;;;;;13.92;68.69;100252.22;5104909;28;20034;-68
2021/06/05 03:59:15;;;;;;;19.33;13.00;;;;;;;13.90;68.93;100249.72;5100362;28;20490;-65
2021/06/05 04:01:40;;;;;;;24.98;13.60;;;;;;;13.72;69.65;100247.00;5104964;28;20172;-68
2021/06/05 04:04:06;;;;;;;22.95;12.18;;;;;;;13.76;69.45;100242.34;5102373;28;20031;-68
2021/06/05 04:06:32;;;;;;;18.00;13.18;;;;;;;13.81;69.92;100244.16;5102722;28;20059;-66
2021/06/05 04:08:58;;;;;;;18.30;12.25;;;;;;;13.85;69.82;100242.31;5104296;28;20028;-74
2021/06/05 04:11:26;;;;;;;15.18;12.18;;;;;;;13.93;69.96;100245.41;5107776;28;20112;-73
2021/06/05 04:13:52;;;;;;;18.65;12.52;;;;;;;13.80;69.89;100248.13;5111457;28;20118;-69
2021/06/05 04:16:18;;;;;;;17.95;12.40;;;;;;;13.61;71.27;100245.72;5112900;28;20030;-75
2021/06/05 04:18:44;;;;;;;20.58;13.23;;;;;;;13.68;71.32;100248.00;5111171;28;20034;-68
2021/06/05 04:21:14;;;;;;;22.48;13.27;;;;;;;13.82;70.92;100242.19;5112669;28;20073;-66
2021/06/05 04:23:40;;;;;;;16.23;13.48;;;;;;;13.90;70.65;100242.13;5112381;28;20040;-66
2021/06/05 04:26:06;;;;;;;18.13;13.60;;;;;;;14.04;70.64;100241.06;5112586;27;20110;-65
2021/06/05 04:28:33;;;;;;;22.88;14.60;;;;;;;14.18;69.78;100243.63;5112204;28;20036;-70
2021/06/05 04:31:00;;;;;;;31.08;15.95;;;;;;;14.16;70.40;100243.13;5112532;28;20028;-76
2021/06/05 04:33:27;;;;;;;18.23;14.38;;;;;;;14.28;70.39;100242.41;5112276;28;20489;-70
2021/06/05 04:35:55;;;;;;;22.63;14.77;;;;;;;14.38;70.54;100244.81;5112317;28;20465;-74
2021/06/05 04:38:21;;;;;;;20.70;14.68;;;;;;;14.44;71.16;100240.63;5112265;28;20108;-70
2021/06/05 04:40:47;;;;;;;18.15;12.20;;;;;;;14.41;70.33;100238.50;5111785;27;20031;-75
2021/06/05 04:43:15;;;;;;;16.05;13.32;;;;;;;14.40;70.50;100228.41;5111868;28;20034;-69
2021/06/05 04:45:41;;;;;;;15.30;12.05;;;;;;;14.43;70.39;100230.53;5111314;28;20032;-68
2021/06/05 04:48:07;;;;;;;16.23;11.43;;;;;;;14.34;69.63;100229.75;5111906;28;20103;-68
2021/06/05 04:50:36;;;;;;;13.82;11.40;;;;;;;14.26;69.94;100239.09;5111868;28;20027;-77
2021/06/05 04:53:02;;;;;;;19.05;12.15;;;;;;;14.27;71.00;100229.50;5110663;28;20028;-70
2021/06/05 04:55:28;;;;;;;13.77;10.95;;;;;;;14.37;69.89;100242.31;5110599;28;20047;-71
2021/06/05 04:57:55;;;;;;;15.55;11.77;;;;;;;14.48;70.39;100239.91;5111730;28;20028;-74
2021/06/05 05:00:37;;;;;;;17.35;12.75;;;;;;;14.45;70.70;100245.06;5110180;28;20023;-77
2021/06/05 05:03:04;;;;;;;39.78;13.20;;;;;;;14.51;70.71;100247.69;5110338;28;20482;-72
2021/06/05 05:05:30;;;;;;;15.55;11.63;;;;;;;14.59;69.42;100249.59;5111745;28;20032;-72
2021/06/05 05:07:56;;;;;;;17.17;11.88;;;;;;;14.75;68.95;100241.38;5111590;28;20521;-77
2021/06/05 05:10:26;;;;;;;19.23;11.88;;;;;;;14.80;68.84;100240.34;5110142;28;20122;-74
2021/06/05 05:12:51;;;;;;;24.02;14.40;;;;;;;14.63;70.35;100244.13;5111476;28;20067;-72
2021/06/05 05:15:18;;;;;;;23.58;14.13;;;;;;;14.80;69.22;100235.56;5107396;28;20097;-74
2021/06/05 05:17:43;;;;;;;22.77;12.50;;;;;;;14.97;69.49;100233.75;5101085;28;20049;-71
2021/06/05 05:20:11;;;;;;;19.35;13.27;;;;;;;15.13;68.73;100228.28;5093544;28;20031;-73
2021/06/05 05:22:39;;;;;;;21.92;13.65;;;;;;;15.21;68.62;100227.38;5089933;28;20056;-72
2021/06/05 05:25:05;;;;;;;23.13;14.35;;;;;;;15.34;68.12;100227.41;5107558;28;20024;-79
2021/06/05 05:27:30;;;;;;;29.33;14.85;;;;;;;15.29;68.39;100225.63;5107032;28;20050;-69
2021/06/05 05:29:56;;;;;;;18.52;12.45;;;;;;;15.36;68.69;100227.88;5107234;28;20102;-75
2021/06/05 05:32:21;;;;;;;20.70;12.55;;;;;;;15.27;68.58;100225.16;5105745;28;20460;-75
2021/06/05 05:34:47;;;;;;;17.10;13.27;;;;;;;15.46;69.10;100227.44;5107673;28;20024;-78
2021/06/05 05:37:14;;;;;;;17.48;12.05;;;;;;;15.50;68.77;100228.38;5100364;28;20120;-76
2021/06/05 05:39:40;;;;;;;20.23;11.82;;;;;;;15.49;68.08;100218.25;5105172;28;20037;-70
2021/06/05 05:42:05;;;;;;;18.48;13.15;;;;;;;15.61;69.08;100220.25;5098402;28;20474;-71
2021/06/05 05:44:31;;;;;;;21.40;12.23;;;;;;;15.61;68.15;100213.81;5105312;28;20035;-77
2021/06/05 05:46:56;;;;;;;13.43;12.02;;;;;;;15.78;67.72;100207.94;5101317;28;20058;-77
2021/06/05 05:49:24;;;;;;;22.05;12.57;;;;;;;15.90;67.50;100204.31;5103797;28;20023;-78
2021/06/05 05:51:50;;;;;;;22.35;12.23;;;;;;;15.86;67.61;100197.69;5101473;28;20127;-71
2021/06/05 05:54:15;;;;;;;22.35;12.32;;;;;;;15.95;68.12;100208.91;5100402;28;20026;-68
2021/06/05 05:56:41;;;;;;;27.25;13.07;;;;;;;16.22;67.26;100203.69;5103564;28;20036;-79
2021/06/05 05:59:06;;;;;;;13.15;11.73;;;;;;;16.58;64.75;100193.47;5098229;28;20428;-74
2021/06/05 06:01:32;;;;;;;12.52;11.23;;;;;;;16.64;64.49;100191.22;5105204;28;20043;-70
2021/06/05 06:03:58;;;;;;;14.63;11.55;;;;;;;16.82;63.19;100186.91;5100689;28;20031;-70
2021/06/05 06:06:26;;;;;;;10.82;9.77;;;;;;;17.05;63.13;100191.19;5103794;28;20068;-77
2021/06/05 06:08:53;;;;;;;13.35;10.60;;;;;;;17.16;62.52;100186.66;5102508;28;20030;-72
2021/06/05 06:11:20;;;;;;;12.23;10.90;;;;;;;17.35;62.36;100185.94;5108292;28;20039;-71
2021/06/05 06:13:45;;;;;;;11.23;10.10;;;;;;;17.59;62.06;100181.28;5114948;28;20041;-68
2021/06/05 06:16:13;;;;;;;11.52;9.88;;;;;;;17.68;60.72;100181.09;5115087;28;20549;-78
2021/06/05 06:18:39;;;;;;;12.13;10.23;;;;;;;17.77;59.87;100176.06;5113375;28;20024;-76
2021/06/05 06:21:09;;;;;;;15.55;9.93;;;;;;;17.95;59.26;100178.47;5114610;28;20424;-70
2021/06/05 06:23:36;;;;;;;16.50;9.15;;;;;;;18.03;58.44;100179.50;5113824;28;20594;-69
2021/06/05 06:26:06;;;;;;;18.00;9.85;;;;;;;17.98;58.76;100174.09;5114846;28;20489;-75
2021/06/05 06:28:36;;;;;;;15.88;9.88;;;;;;;18.14;58.65;100180.56;5114570;28;20035;-68
2021/06/05 06:31:03;;;;;;;18.33;9.70;;;;;;;18.34;57.51;100180.59;5114983;28;20131;-76
2021/06/05 06:33:29;;;;;;;14.55;10.30;;;;;;;18.46;56.03;100173.97;5114521;28;20038;-66
2021/06/05 06:35:55;;;;;;;22.52;10.55;;;;;;;18.62;55.93;100179.56;5114206;28;20031;-76
2021/06/05 06:38:26;;;;;;;14.50;10.88;;;;;;;18.66;56.00;100172.78;5113576;28;20469;-77
2021/06/05 06:40:52;;;;;;;13.57;10.38;;;;;;;18.77;57.21;100166.53;5112818;28;20062;-71
2021/06/05 06:43:22;;;;;;;16.92;11.10;;;;;;;18.94;55.27;100168.91;5114220;28;20484;-75
2021/06/05 06:45:47;;;;;;;16.52;10.73;;;;;;;19.08;54.63;100161.88;5114514;28;20110;-77
2021/06/05 06:48:13;;;;;;;16.08;10.43;;;;;;;19.06;56.11;100164.25;5112975;28;20103;-78
2021/06/05 06:50:39;;;;;;;13.05;10.15;;;;;;;19.21;55.85;100163.34;5114108;28;20568;-70
2021/06/05 06:53:05;;;;;;;19.63;10.65;;;;;;;19.36;55.06;100158.72;5114357;28;20408;-70
2021/06/05 06:55:30;;;;;;;18.05;10.65;;;;;;;19.50;54.11;100161.00;5112795;28;20028;-70
2021/06/05 06:57:58;;;;;;;18.02;11.50;;;;;;;19.85;53.05;100161.13;5114106;28;20119;-75
2021/06/05 07:00:40;;;;;;;19.92;10.60;;;;;;;19.86;53.03;100159.94;5112640;28;20027;-74
2021/06/05 07:03:06;;;;;;;25.45;10.48;;;;;;;19.85;54.65;100155.47;5113976;28;20115;-76
2021/06/05 07:05:32;;;;;;;27.75;10.23;;;;;;;20.17;52.49;100155.16;5114044;28;20544;-77
2021/06/05 07:08:18;;;;;;;15.00;9.80;;;;;;;20.51;51.01;100146.66;5113793;28;20477;-72
2021/06/05 07:10:45;;;;;;;10.25;8.93;;;;;;;20.60;50.51;100138.63;5112478;28;20054;-70
2021/06/05 07:13:12;;;;;;;13.07;8.95;;;;;;;20.79;49.12;100136.00;5113728;28;20089;-70
2021/06/05 07:15:37;;;;;;;45.10;10.57;;;;;;;20.70;50.12;100136.31;5113832;28;20031;-70
2021/06/05 07:18:04;;;;;;;22.02;8.65;;;;;;;20.80;50.07;100141.31;5112621;28;20027;-77
2021/06/05 07:20:31;;;;;;;21.85;8.73;;;;;;;21.00;48.86;100139.13;5112011;28;20063;-69
2021/06/05 07:22:58;;;;;;;11.55;7.22;;;;;;;21.07;47.04;100135.53;5112094;28;20062;-75
2021/06/05 07:25:23;;;;;;;18.10;7.70;;;;;;;20.91;49.29;100130.06;5113575;28;20071;-74
2021/06/05 07:27:48;;;;;;;13.10;7.70;;;;;;;21.20;48.83;100132.38;5113580;28;20060;-69
2021/06/05 07:30:15;;;;;;;12.02;6.57;;;;;;;21.46;46.76;100117.97;5113293;28;20023;-71
2021/06/05 07:32:41;;;;;;;9.27;7.10;;;;;;;21.15;48.33;100116.50;5112052;28;20039;-76
2021/06/05 07:35:08;;;;;;;14.00;6.95;;;;;;;21.38;47.39;100118.31;5113417;28;20037;-70
2021/06/05 07:37:34;;;;;;;11.13;6.55;;;;;;;21.61;46.64;100126.66;5113122;27;20404;-77
2021/06/05 07:40:06;;;;;;;10.55;7.25;;;;;;;21.92;46.43;100120.78;5113345;28;20031;-71
2021/06/05 07:42:31;;;;;;;12.30;7.88;;;;;;;22.20;44.55;100116.47;5113507;28;20636;-71
2021/06/05 07:44:57;;;;;;;14.70;7.53;;;;;;;22.26;44.39;100112.81;5112063;28;20028;-73
2021/06/05 07:47:22;;;;;;;14.50;7.55;;;;;;;22.23;43.75;100109.94;5111896;28;20404;-74
2021/06/05 07:49:48;;;;;;;9.77;7.70;;;;;;;22.24;45.15;100109.56;5113218;28;20030;-75
2021/06/05 07:52:13;;;;;;;16.33;8.77;;;;;;;22.41;44.76;100110.84;5113453;28;20039;-71
2021/06/05 07:54:39;;;;;;;10.23;6.85;;;;;;;22.50;43.87;100106.81;5112898;28;20027;-75
2021/06/05 07:57:05;;;;;;;15.32;5.90;;;;;;;22.69;42.19;100106.50;5113333;28;20070;-78
2021/06/05 07:59:31;;;;;;;8.25;6.28;;;;;;;22.82;43.06;100104.09;5112839;27;20102;-76
2021/06/05 08:01:57;;;;;;;15.85;12.07;;;;;;;23.12;42.10;100102.09;5111755;28;20062;-75
2021/06/05 08:04:22;;;;;;;17.73;5.20;;;;;;;23.22;41.05;100086.19;5112742;28;20492;-79
2021/06/05 08:06:49;;;;;;;5.25;4.13;;;;;;;23.42;39.20;100095.19;5113094;28;20035;-78
2021/06/05 08:09:15;;;;;;;4.72;4.00;;;;;;;23.44;38.94;100095.59;5112619;27;20028;-73
2021/06/05 08:11:41;;;;;;;6.32;4.15;;;;;;;23.49;38.89;100089.50;5112852;28;20062;-77
2021/06/05 08:14:07;;;;;;;8.43;5.43;;;;;;;23.48;39.66;100095.59;5111457;28;20497;-74
2021/06/05 08:16:36;;;;;;;10.20;5.90;;;;;;;23.62;39.64;100089.88;5112924;28;20028;-72
2021/06/05 08:19:07;;;;;;;15.55;5.18;;;;;;;23.62;38.90;100086.22;5112774;28;20028;-72
2021/06/05 08:21:32;;;;;;;10.07;4.65;;;;;;;23.70;38.52;100085.78;5113107;28;20480;-77
2021/06/05 08:23:58;;;;;;;6.40;3.15;;;;;;;23.72;38.81;100090.25;5112479;28;20055;-76
2021/06/05 08:26:24;;;;;;;7.80;4.20;;;;;;;23.86;39.33;100086.56;5112340;28;20032;-71
2021/06/05 08:28:49;;;;;;;4.72;4.00;;;;;;;24.09;38.37;100086.13;5112344;28;20112;-78
2021/06/05 08:31:19;;;;;;;5.63;3.78;;;;;;;24.24;38.50;100084.81;5112571;28;20028;-71
2021/06/05 08:33:45;;;;;;;9.65;5.57;;;;;;;23.91;38.78;100080.44;5111678;28;20081;-76
2021/06/05 08:36:12;;;;;;;17.13;5.18;;;;;;;23.93;39.14;100083.69;5110756;28;20031;-71
2021/06/05 08:38:39;;;;;;;8.30;3.60;;;;;;;24.25;39.51;100077.91;5112181;28;20042;-71
2021/06/05 08:41:14;;;;;;;18.88;4.25;;;;;;;24.47;36.67;100079.84;5096653;28;20036;-78
2021/06/05 08:43:54;;;;;;;11.68;4.10;;;;;;;24.50;36.04;100079.81;5110850;28;20527;-79
2021/06/05 08:46:27;;;;;;;4.40;3.65;;;;;;;23.84;38.07;100073.53;5112047;28;20485;-78
2021/06/05 08:48:55;;;;;;;5.75;3.33;;;;;;;24.07;38.29;100080.00;5123422;27;20046;-80
2021/06/05 08:51:53;;;;;;;19.70;4.13;;;;;;;24.30;37.19;100068.06;5094661;28;20043;-79
2021/06/05 08:54:18;;;;;;;10.10;3.95;;;;;;;24.31;38.00;100069.69;5095235;28;20049;-73
2021/06/05 08:56:46;;;;;;;7.88;3.63;;;;;;;24.45;37.87;100060.22;5094066;28;21010;-74
2021/06/05 08:59:18;;;;;;;5.93;3.80;;;;;;;24.69;36.84;100057.66;5095181;28;20085;-70
2021/06/05 09:01:46;;;;;;;7.10;3.08;;;;;;;25.00;36.04;100049.28;5092931;28;20052;-80
2021/06/05 09:04:22;;;;;;;6.32;3.25;;;;;;;25.09;34.77;100046.75;5094176;28;20031;-75
2021/06/05 09:06:56;;;;;;;9.23;3.15;;;;;;;24.94;34.03;100051.78;5094833;28;20464;-73
2021/06/05 09:09:34;;;;;;;4.05;3.10;;;;;;;24.79;34.16;100044.53;5094608;28;20045;-70
2021/06/05 09:12:02;;;;;;;5.63;3.20;;;;;;;24.88;34.62;100044.09;5111882;28;20035;-72
2021/06/05 09:14:30;;;;;;;5.72;3.85;;;;;;;25.00;34.64;100037.84;5105911;28;20031;-72
2021/06/05 09:16:55;;;;;;;10.18;3.47;;;;;;;25.54;32.26;100033.69;5101788;28;20028;-74
2021/06/05 09:19:28;;;;;;;5.95;2.80;;;;;;;25.25;33.31;100025.38;5102016;28;20110;-76
2021/06/05 09:22:06;;;;;;;4.47;2.90;;;;;;;25.31;33.27;100025.72;5100664;28;20092;-71
2021/06/05 09:24:32;;;;;;;4.35;2.55;;;;;;;25.51;31.41;100014.50;5101319;28;20178;-76
2021/06/05 09:27:18;;;;;;;7.00;2.90;;;;;;;25.54;31.53;100019.38;5098507;28;20112;-71
2021/06/05 09:29:58;;;;;;;13.77;2.60;;;;;;;25.81;30.22;100015.81;5090709;28;20421;-72
2021/06/05 09:32:36;;;;;;;5.05;3.25;;;;;;;25.81;30.54;100012.16;5103224;28;20518;-73
2021/06/05 09:35:04;;;;;;;60.92;42.17;;;;;;;25.75;32.08;100006.88;5098457;28;20036;-74
2021/06/05 09:37:42;;;;;;;7.72;4.65;;;;;;;26.07;30.31;99999.94;5101906;28;20425;-71
2021/06/05 09:40:14;;;;;;;4.97;2.53;;;;;;;26.26;29.75;100000.56;5097229;28;20039;-73
2021/06/05 09:42:44;;;;;;;6.07;2.80;;;;;;;26.54;29.00;99995.63;5101723;28;20027;-76
2021/06/05 09:45:38;;;;;;;6.70;3.08;;;;;;;26.91;29.77;99995.91;5097648;28;20022;-72
2021/06/05 09:48:24;;;;;;;5.32;2.42;;;;;;;26.86;28.74;99990.63;5097779;28;20035;-73
2021/06/05 09:50:53;;;;;;;11.50;3.35;;;;;;;26.77;28.67;99991.97;5100256;28;20390;-73
2021/06/05 09:53:27;;;;;;;8.82;4.55;;;;;;;26.73;30.07;99988.38;5100484;28;20504;-73
2021/06/05 09:55:52;;;;;;;104.00;69.72;;;;;;;26.56;30.96;99984.53;5098044;28;20123;-73
2021/06/05 09:58:40;;;;;;;278.40;173.77;;;;;;;26.56;30.31;99981.66;5102900;28;20114;-73
2021/06/05 10:01:33;;;;;;;199.07;112.10;;;;;;;26.80;30.82;99984.56;5100078;28;20185;-73
2021/06/05 10:04:07;;;;;;;421.17;254.95;;;;;;;26.99;29.70;99970.78;5095760;28;20082;-73
2021/06/05 10:06:45;;;;;;;32.55;19.75;;;;;;;26.70;28.59;99960.56;5103557;28;20481;-72
2021/06/05 10:09:26;;;;;;;4.47;3.38;;;;;;;26.74;29.47;99961.31;5104458;28;20436;-73
2021/06/05 10:11:54;;;;;;;7.43;4.38;;;;;;;27.19;28.71;99959.34;5107027;28;20177;-72
2021/06/05 10:14:29;;;;;;;11.82;5.28;;;;;;;27.51;27.37;99951.34;5110576;28;20417;-73
2021/06/05 10:17:02;;;;;;;3.50;2.95;;;;;;;27.41;26.90;99965.47;5109154;28;20020;-71
2021/06/05 10:19:41;;;;;;;7.07;5.05;;;;;;;27.52;26.83;99955.84;5110854;28;20077;-75
2021/06/05 10:22:08;;;;;;;4.13;2.90;;;;;;;27.76;27.19;99953.75;5108924;28;20024;-75
2021/06/05 10:24:46;;;;;;;2.83;2.63;;;;;;;27.89;26.88;99951.84;5110376;28;20030;-77
2021/06/05 10:27:39;;;;;;;16.55;9.43;;;;;;;28.05;27.87;99953.13;5110530;28;20406;-74
2021/06/05 10:30:18;;;;;;;45.17;29.48;;;;;;;27.74;29.86;99939.81;5110705;28;20037;-82
2021/06/05 10:32:45;;;;;;;11.90;7.80;;;;;;;27.64;28.63;99945.81;5110293;28;20081;-72
2021/06/05 10:35:38;;;;;;;36.97;24.67;;;;;;;27.76;28.44;99942.25;5110771;28;20031;-77
2021/06/05 10:38:08;;;;;;;11.13;8.57;;;;;;;27.77;26.34;99926.63;5090961;28;20027;-76
2021/06/05 10:40:34;;;;;;;3.53;3.22;;;;;;;27.57;26.83;99920.88;5095288;28;20042;-80
2021/06/05 10:43:02;;;;;;;6.28;3.25;;;;;;;27.74;25.72;99928.34;5109939;28;20027;-77
2021/06/05 10:45:34;;;;;;;3.95;2.00;;;;;;;27.60;24.75;99922.88;5102872;28;20023;-77
2021/06/05 10:48:15;;;;;;;7.55;2.67;;;;;;;27.91;25.09;99921.84;5106901;28;20050;-74
2021/06/05 10:50:47;;;;;;;8.25;2.67;;;;;;;27.69;22.98;99914.47;5102162;28;20047;-76
2021/06/05 10:53:31;;;;;;;6.95;1.70;;;;;;;27.73;23.52;99920.13;5104241;28;20141;-73
2021/06/05 10:56:00;;;;;;;2.33;2.13;;;;;;;27.46;22.35;99912.47;5102224;28;20024;-80
2021/06/05 10:58:34;;;;;;;5.93;2.05;;;;;;;27.99;23.13;99914.66;5106812;28;20031;-72
2021/06/05 11:01:06;;;;;;;3.28;1.80;;;;;;;28.15;21.65;99911.81;5104270;28;20040;-76
2021/06/05 11:03:32;;;;;;;20.63;9.68;;;;;;;28.67;22.19;99900.75;5108041;28;20035;-71
2021/06/05 11:06:22;;;;;;;5.47;2.70;;;;;;;28.78;23.46;99902.53;5105104;28;20024;-80
2021/06/05 11:08:51;;;;;;;6.63;2.10;;;;;;;28.94;22.46;99893.91;5109615;28;20517;-72
2021/06/05 11:11:39;;;;;;;2.67;2.05;;;;;;;28.69;21.78;99897.44;5110436;28;20047;-76
2021/06/05 11:14:15;;;;;;;13.60;2.65;;;;;;;28.33;24.56;99899.09;5093690;28;20081;-74
2021/06/05 11:16:58;;;;;;;6.82;1.90;;;;;;;28.16;22.22;99901.13;5095956;28;20051;-74
2021/06/05 11:19:51;;;;;;;9.73;1.92;;;;;;;28.78;22.55;99894.72;5102930;28;20036;-82
2021/06/05 11:22:26;;;;;;;4.07;2.00;;;;;;;29.00;21.14;99891.28;5111482;28;20039;-78
2021/06/05 11:25:07;;;;;;;9.07;5.50;;;;;;;28.13;20.91;99887.66;5112748;28;20089;-77